Time;durP1;ratioP1;P1;durP2;ratioP2;P2;SDS_P1;SDS_P2;PMS_P1;PMS_P2;Temp;Humidity;BMP_temperature;BMP_pressure;BME280_temperature;BME280_humidity;BME280_pressure;Samples;Min_cycle;Max_cycle;Signal;HPM_P1;HPM_P2
2024/04/07 00:02:18;;;;;;;4.85;1.50;;;;;;;-144.05;34.15;56923.19;5032383;28;20038;-85
2024/04/07 00:04:44;;;;;;;4.57;1.00;;;;;;;-144.05;34.39;56942.28;5033772;28;20434;-86
2024/04/07 00:07:11;;;;;;;3.08;1.40;;;;;;;-144.05;34.38;56918.94;5047293;28;20423;-86
2024/04/07 00:09:38;;;;;;;2.90;1.27;;;;;;;-144.05;34.27;56942.28;5026125;28;20030;-83
2024/04/07 00:12:08;;;;;;;3.72;1.38;;;21.20;76.10;;;-144.05;34.45;56908.31;5033059;28;20033;-85
2024/04/07 00:14:37;;;;;;;3.38;1.20;;;17.20;74.10;;;-144.05;34.61;56959.28;5031369;28;20633;-88
2024/04/07 00:17:05;;;;;;;3.00;1.10;;;21.10;76.80;;;-144.05;34.55;56912.56;5029329;28;20152;-86
2024/04/07 00:19:33;;;;;;;2.45;1.17;;;;;;;-144.05;34.57;56929.53;5027568;28;20456;-85
2024/04/07 00:21:59;;;;;;;2.55;1.10;;;;;;;-144.05;34.75;56904.06;5028981;28;20095;-85
2024/04/07 00:24:26;;;;;;;2.97;1.15;;;;;;;-144.05;34.86;56921.06;5027133;28;20104;-87
2024/04/07 00:26:52;;;;;;;5.32;1.50;;;;;;;-144.05;34.67;56923.19;5032263;28;20030;-85
2024/04/07 00:29:18;;;;;;;4.78;1.40;;;;;;;-144.05;34.59;56904.06;5031897;28;20092;-86
2024/04/07 00:31:44;;;;;;;3.50;1.20;;;;;;;-144.05;34.25;56923.19;5031844;28;20052;-86
2024/04/07 00:34:11;;;;;;;3.75;1.20;;;;;;;-144.05;34.21;56912.56;5032548;28;20029;-87
2024/04/07 00:36:37;;;;;;;4.53;1.20;;;;;;;-144.05;34.41;56914.69;5032439;28;20055;-87
2024/04/07 00:39:03;;;;;;;2.60;1.20;;;;;;;-144.05;34.31;56921.06;5031616;28;20068;-87
2024/04/07 00:41:29;;;;;;;5.93;1.25;;;;;;;-144.05;34.24;56918.94;5021544;28;20037;-85
2024/04/07 00:43:56;;;;;;;2.92;1.38;;;;;;;-144.05;34.09;56931.66;5025740;28;20025;-85
2024/04/07 00:46:22;;;;;;;5.85;1.45;;;;;;;-144.05;33.83;56931.66;5027328;28;20029;-85
2024/04/07 00:48:48;;;;;;;2.53;1.00;;;20.60;75.90;;;-144.05;34.17;56929.53;5029212;28;20026;-84
2024/04/07 00:51:14;;;;;;;5.93;1.23;;;20.80;75.70;;;-144.05;33.87;56931.66;5022979;28;20526;-89
2024/04/07 00:53:40;;;;;;;3.40;1.15;;;17.00;73.20;;;-144.05;33.65;56935.91;5057765;28;20029;-82
2024/04/07 00:56:07;;;;;;;3.03;1.13;;;;;;;-144.05;33.67;56921.06;5055995;28;20064;-81
2024/04/07 00:58:34;;;;;;;1.95;1.10;;;;;;;-144.05;33.57;56938.03;5057024;28;20025;-84
2024/04/07 01:01:00;;;;;;;7.25;1.30;;;;;;;-144.05;33.30;56933.78;5056416;28;20021;-82
2024/04/07 01:03:26;;;;;;;7.07;1.45;;;;;;;-144.05;33.44;56944.41;5047849;28;20065;-86
2024/04/07 01:05:53;;;;;;;5.82;1.25;;;;;;;-144.05;33.52;56912.56;5044732;28;20087;-89
2024/04/07 01:08:18;;;;;;;2.78;1.10;;;21.30;74.50;;;-144.05;33.25;56933.78;5051323;28;20534;-88
2024/04/07 01:10:51;;;;;;;5.50;1.05;;;19.90;73.40;;;-144.05;33.29;56933.78;5056870;28;20029;-82
2024/04/07 01:13:24;;;;;;;5.60;1.08;;;;;;;-144.05;33.42;56933.78;5039844;28;20034;-87
2024/04/07 01:15:50;;;;;;;3.75;1.25;;;;;;;-144.05;33.27;56895.56;5039391;28;20094;-86
2024/04/07 01:18:16;;;;;;;9.02;1.67;;;;;;;-144.05;32.98;56938.03;5031280;28;20029;-83
2024/04/07 01:20:42;;;;;;;3.92;1.55;;;21.30;75.00;;;-144.05;33.25;56940.16;5031347;28;20490;-86
2024/04/07 01:23:18;;;;;;;9.00;1.40;;;;;;;-144.05;33.02;56921.06;5028557;28;20037;-85
2024/04/07 01:25:45;;;;;;;4.13;0.93;;;;;;;-144.05;32.90;56927.41;5044669;28;20021;-86
2024/04/07 01:28:12;;;;;;;7.05;1.33;;;21.30;73.70;;;-144.05;32.97;56929.53;5031179;28;20403;-85
2024/04/07 01:30:39;;;;;;;3.95;1.33;;;;;;;-144.05;32.52;56929.53;5028915;28;20030;-87
2024/04/07 01:33:05;;;;;;;3.63;0.80;;;;;;;-144.05;32.88;56933.78;5033999;28;20021;-86
2024/04/07 01:35:34;;;;;;;6.95;1.40;;;;;;;-144.05;32.94;56916.81;5031718;28;20027;-88
2024/04/07 01:38:01;;;;;;;8.43;1.50;;;;;;;-144.05;32.88;56929.53;5032955;28;20463;-86
2024/04/07 01:40:27;;;;;;;3.38;1.02;;;17.70;71.50;;;-144.05;32.82;56906.19;5027271;28;20060;-87
2024/04/07 01:42:53;;;;;;;4.55;1.17;;;;;;;-144.05;32.66;56916.81;5023709;28;20120;-87
2024/04/07 01:45:20;;;;;;;3.10;1.42;;;20.40;72.10;;;-144.05;32.94;56948.66;5033125;28;20037;-85
2024/04/07 01:47:46;;;;;;;6.32;1.45;;;;;;;-144.05;32.59;56933.78;5034238;28;20025;-86
2024/04/07 01:50:13;;;;;;;2.60;1.10;;;;;;;-144.05;32.49;56938.03;5034349;28;20030;-84
2024/04/07 01:52:39;;;;;;;3.45;1.10;;;18.30;71.10;;;-144.05;32.78;56895.56;5023516;28;20487;-85
2024/04/07 01:55:08;;;;;;;3.72;1.42;;;;;;;-144.05;32.53;56940.16;5034830;28;20052;-87
2024/04/07 01:57:36;;;;;;;5.32;1.33;;;;;;;-144.05;32.87;56946.53;5036210;28;20026;-87
2024/04/07 02:00:02;;;;;;;6.00;1.20;;;18.30;71.10;;;-144.05;32.82;56931.66;5026785;28;20032;-86
2024/04/07 02:02:28;;;;;;;3.80;1.17;;;;;;;-144.05;32.94;56944.41;5029156;28;20037;-88
2024/04/07 02:04:54;;;;;;;5.22;1.30;;;;;;;-144.05;32.83;56908.31;5025806;28;20028;-85
2024/04/07 02:07:21;;;;;;;4.60;1.17;;;;;;;-144.05;32.88;56921.06;5026260;28;20514;-85
2024/04/07 02:09:48;;;;;;;3.20;1.00;;;20.40;72.60;;;-144.05;32.97;56938.03;5028631;28;20021;-87
2024/04/07 02:12:19;;;;;;;7.20;1.45;;;;;;;-144.05;32.89;56944.41;5031053;28;20036;-86
2024/04/07 02:14:48;;;;;;;6.45;1.80;;;;;;;-144.05;32.96;56908.31;5024258;28;20100;-86
2024/04/07 02:17:15;;;;;;;7.75;1.17;;;;;;;-144.05;33.30;56929.53;5021665;28;20030;-85
2024/04/07 02:19:41;;;;;;;8.77;1.40;;;;;;;-144.05;33.42;56918.94;5030733;28;20029;-88
2024/04/07 02:22:08;;;;;;;7.20;1.50;;;;;;;-144.05;33.33;56927.41;5030893;28;20029;-86
2024/04/07 02:24:34;;;;;;;4.45;1.40;;;;;;;-144.05;33.70;56921.06;5029325;28;20038;-87
2024/04/07 02:27:01;;;;;;;7.10;1.23;;;;;;;-144.05;33.61;56942.28;5034819;28;20083;-85
2024/04/07 02:29:28;;;;;;;4.85;1.45;;;;;;;-144.05;33.92;56933.78;5035778;28;20032;-86
2024/04/07 02:31:54;;;;;;;6.88;2.03;;;;;;;-144.05;34.08;56912.56;5030148;28;20026;-86
2024/04/07 02:34:20;;;;;;;4.88;1.20;;;;;;;-144.05;34.15;56935.91;5032104;28;20029;-85
2024/04/07 02:36:49;;;;;;;3.25;1.42;;;;;;;-144.05;34.42;56942.28;5043839;28;20029;-86
2024/04/07 02:39:17;;;;;;;4.82;1.20;;;;;;;-144.05;34.62;56935.91;5026872;28;20567;-88
2024/04/07 02:41:52;;;;;;;5.25;1.60;;;;;;;-144.05;35.02;56914.69;5034103;28;20036;-89
2024/04/07 02:48:03;;;;;;;5.15;1.60;;;;;;;-144.05;34.94;56925.28;5025544;28;20036;-88
2024/04/07 02:49:49;;;;;;;10.40;1.83;;;;;;;-144.05;35.95;56916.81;5030902;28;19920;-86
2024/04/07 02:52:15;;;;;;;5.53;1.20;;;;;;;-144.05;36.00;56912.56;5047609;28;20032;-86
2024/04/07 02:54:44;;;;;;;9.95;1.48;;;;;;;-144.05;36.44;56904.06;5034341;28;20060;-87
2024/04/07 02:57:12;;;;;;;5.95;1.05;;;;;;;-144.05;36.40;56910.44;5051332;28;20449;-88
2024/04/07 02:59:38;;;;;;;6.68;1.73;;;;;;;-144.05;37.01;56889.19;5018151;28;20035;-86
2024/04/07 03:02:04;;;;;;;3.72;1.58;;;20.80;82.80;;;-144.05;37.59;56921.06;5034183;28;20033;-85
2024/04/07 03:04:30;;;;;;;6.78;1.48;;;;;;;-144.05;38.24;56912.56;5050363;28;20036;-89
2024/04/07 03:07:00;;;;;;;3.58;1.38;;;;;;;-144.05;38.86;56927.41;5033305;28;20032;-87
2024/04/07 03:09:27;;;;;;;4.60;1.58;;;;;;;-144.05;39.43;56904.06;5038719;28;20048;-79
2024/04/07 03:11:53;;;;;;;6.53;1.70;;;20.90;86.30;;;-144.05;39.31;56895.56;5041979;28;20033;-86
2024/04/07 03:14:19;;;;;;;6.38;1.98;;;;;;;-144.05;40.07;56893.44;5021934;28;20029;-86
2024/04/07 03:16:46;;;;;;;8.05;2.03;;;;;;;-144.05;40.41;56912.56;5025611;28;20044;-88
2024/04/07 03:19:12;;;;;;;5.80;2.10;;;;;;;-144.05;40.60;56908.31;5032538;28;20037;-85
2024/04/07 03:21:38;;;;;;;8.35;1.63;;;;;;;-144.05;41.19;56908.31;5030199;28;20045;-87
2024/04/07 03:24:05;;;;;;;4.47;2.13;;;16.30;87.80;;;-144.05;41.91;56908.31;5030331;28;20041;-85
2024/04/07 03:26:31;;;;;;;6.90;1.80;;;;;;;-144.05;42.08;56895.56;5033402;28;20108;-85
2024/04/07 03:28:57;;;;;;;7.03;2.15;;;;;;;-144.05;42.43;56914.69;5032622;28;20056;-84
2024/04/07 03:31:23;;;;;;;6.85;2.20;;;;;;;-144.05;43.34;56904.06;5032681;28;20321;-84
2024/04/07 03:33:50;;;;;;;7.50;1.77;;;;;;;-144.05;43.61;56912.56;5031994;28;20029;-85
2024/04/07 03:36:16;;;;;;;9.18;1.90;;;;;;;-144.05;44.58;56882.81;5032329;28;20029;-86
2024/04/07 03:38:42;;;;;;;6.75;1.90;;;;;;;-144.05;45.18;56918.94;5031529;28;20025;-85
2024/04/07 03:41:08;;;;;;;8.15;2.13;;;;;;;-144.05;45.71;56901.94;5031854;28;20079;-85
2024/04/07 03:43:35;;;;;;;7.20;1.77;;;;;;;-144.05;45.73;56910.44;5032706;28;20025;-85
2024/04/07 03:46:02;;;;;;;5.22;2.03;;;;;;;-144.05;45.92;56933.78;5033166;28;20029;-84
2024/04/07 03:48:32;;;;;;;5.65;2.10;;;;;;;-144.05;46.33;56921.06;5048225;28;20040;-84
2024/04/07 03:50:58;;;;;;;10.88;2.40;;;;;;;-144.05;46.56;56914.69;5031957;28;20033;-84
2024/04/07 03:53:28;;;;;;;8.60;2.22;;;18.10;98.50;;;-144.05;46.96;56897.69;5025763;28;20041;-85
2024/04/07 03:55:54;;;;;;;7.88;2.17;;;;;;;-144.05;47.15;56889.19;5033579;28;20044;-85
2024/04/07 03:58:22;;;;;;;8.05;2.13;;;;;;;-144.05;47.85;56925.28;5024905;28;20025;-85
2024/04/07 04:00:48;;;;;;;8.35;2.05;;;;;;;-144.05;48.01;56880.69;5041800;28;20476;-85
2024/04/07 04:03:14;;;;;;;9.85;2.15;;;;;;;-144.05;48.29;56931.66;5032909;28;20479;-85
2024/04/07 04:05:41;;;;;;;5.03;1.90;;;;;;;-144.05;48.92;56901.94;5032424;28;20041;-84
2024/04/07 04:08:07;;;;;;;7.38;2.15;;;;;;;-144.05;49.71;56895.56;5025001;28;20029;-81
2024/04/07 04:10:38;;;;;;;10.07;2.13;;;17.50;99.90;;;-144.05;50.14;56914.69;5032329;28;20033;-85
2024/04/07 04:13:04;;;;;;;9.93;2.20;;;18.40;99.90;;;-144.05;50.20;56908.31;5026937;28;20392;-85
2024/04/07 04:15:31;;;;;;;7.70;2.03;;;;;;;-144.05;50.39;56887.06;5031017;28;20067;-85
2024/04/07 04:17:57;;;;;;;7.38;2.08;;;;;;;-144.05;50.60;56876.44;5032536;28;20037;-87
2024/04/07 04:20:23;;;;;;;6.43;1.92;;;18.10;99.90;;;-144.05;50.62;56891.31;5032930;28;20139;-86
2024/04/07 04:22:49;;;;;;;5.15;1.95;;;18.40;99.90;;;-144.05;50.48;56910.44;5032582;28;20510;-85
2024/04/07 04:25:17;;;;;;;7.88;2.10;;;;;;;-144.05;50.72;56927.41;5027571;28;20033;-84
2024/04/07 04:27:43;;;;;;;6.28;1.88;;;;;;;-144.05;51.63;56906.19;5031430;28;20025;-84
2024/04/07 04:30:10;;;;;;;11.80;2.10;;;;;;;-144.05;52.24;56910.44;5025074;28;20033;-84
2024/04/07 04:32:39;;;;;;;4.85;1.70;;;17.90;99.90;;;-144.05;52.08;56897.69;5024866;28;20049;-85
2024/04/07 04:35:10;;;;;;;4.93;1.55;;;;;;;-144.05;51.85;56870.06;5025598;28;20124;-83
2024/04/07 04:37:35;;;;;;;9.50;1.65;;;17.70;99.90;;;-144.05;52.14;56914.69;5030541;28;20522;-85
2024/04/07 04:40:01;;;;;;;9.57;1.75;;;18.00;99.90;;;-144.05;51.75;56904.06;5031291;28;20030;-85
2024/04/07 04:42:28;;;;;;;6.50;1.73;;;14.00;99.90;;;-144.05;51.78;56893.44;5015337;28;20033;-85
2024/04/07 04:44:59;;;;;;;6.18;1.83;;;18.50;99.90;;;-144.05;52.34;56891.31;5031949;28;20025;-85
2024/04/07 04:47:24;;;;;;;5.03;1.65;;;17.80;99.90;;;-144.05;51.95;56895.56;5030632;28;20029;-83
2024/04/07 04:49:50;;;;;;;6.30;2.13;;;14.30;99.90;;;-144.05;51.92;56887.06;5011913;28;20068;-85
2024/04/07 04:52:16;;;;;;;6.20;1.58;;;;;;;-144.05;52.34;56904.06;5024406;28;20032;-84
2024/04/07 04:54:43;;;;;;;6.38;1.77;;;;;;;-144.05;53.02;56901.94;5019919;28;20377;-86
2024/04/07 04:57:09;;;;;;;5.35;1.42;;;;;;;-144.05;53.30;56870.06;5013332;28;20033;-86
2024/04/07 04:59:35;;;;;;;6.63;1.88;;;;;;;-144.05;53.66;56882.81;5014077;28;20105;-84
2024/04/07 05:02:01;;;;;;;5.15;1.73;;;;;;;-144.05;53.52;56901.94;5029047;28;20038;-85
2024/04/07 05:04:28;;;;;;;6.97;1.80;;;16.70;99.90;;;-144.05;53.80;56889.19;5029954;28;20113;-86
2024/04/07 05:06:54;;;;;;;7.82;2.63;;;;;;;-144.05;54.20;56878.56;5028239;28;20030;-88
2024/04/07 05:09:20;;;;;;;6.57;2.05;;;17.80;99.90;;;-144.05;54.24;56891.31;5036325;28;20037;-81
2024/04/07 05:11:46;;;;;;;7.22;2.15;;;;;;;-144.05;54.61;56904.06;5043808;28;20030;-85
2024/04/07 05:14:12;;;;;;;5.78;2.00;;;;;;;-144.05;54.53;56882.81;5027719;28;20487;-85
2024/04/07 05:16:38;;;;;;;7.88;1.98;;;;;;;-144.05;54.57;56891.31;5029130;28;20037;-85
2024/04/07 05:19:05;;;;;;;8.15;2.30;;;16.50;99.90;;;-144.05;54.87;56904.06;5039299;28;20033;-87
2024/04/07 05:21:32;;;;;;;6.68;1.92;;;17.80;99.90;;;-144.05;55.00;56876.44;5045936;28;20171;-88
2024/04/07 05:23:58;;;;;;;5.18;1.77;;;17.10;99.90;;;-144.05;55.18;56891.31;5031542;28;20029;-84
2024/04/07 05:26:24;;;;;;;12.77;2.47;;;;;;;-144.05;56.09;56874.31;5015357;28;20033;-84
2024/04/07 05:28:50;;;;;;;5.75;1.75;;;17.50;99.90;;;-144.05;56.04;56910.44;5026589;28;20550;-86
2024/04/07 05:31:16;;;;;;;7.03;1.88;;;;;;;-144.05;55.84;56878.56;5040900;28;20034;-86
2024/04/07 05:33:46;;;;;;;8.32;1.90;;;16.50;99.90;;;-144.05;55.78;56887.06;5041190;28;20029;-85
2024/04/07 05:36:12;;;;;;;6.13;2.17;;;17.90;99.90;;;-144.05;56.46;56910.44;5037388;28;20035;-83
2024/04/07 05:38:42;;;;;;;6.10;1.80;;;17.60;99.90;;;-144.05;56.21;56897.69;5031196;28;20104;-86
2024/04/07 05:41:09;;;;;;;9.85;2.15;;;;;;;-144.05;55.74;56887.06;5031804;28;20072;-85
2024/04/07 05:43:35;;;;;;;6.50;2.13;;;16.60;99.90;;;-144.05;55.57;56893.44;5016269;28;20387;-86
2024/04/07 05:46:07;;;;;;;5.55;1.92;;;16.70;99.90;;;-144.05;55.31;56889.19;5047435;28;20048;-85
2024/04/07 05:48:35;;;;;;;8.27;2.45;;;;;;;-144.05;55.45;56921.06;5014675;28;20030;-87
2024/04/07 05:51:03;;;;;;;7.53;2.13;;;17.20;99.90;;;-144.05;55.17;56878.56;5017190;28;20555;-85
2024/04/07 05:53:29;;;;;;;7.15;2.15;;;17.10;99.90;;;-144.05;54.83;56870.06;5030051;28;20040;-85
2024/04/07 05:55:55;;;;;;;5.45;2.00;;;17.40;99.90;;;-144.05;55.04;56878.56;5030743;28;20029;-86
2024/04/07 05:58:22;;;;;;;5.10;1.60;;;18.40;99.90;;;-144.05;55.11;56897.69;5030546;28;20525;-85
2024/04/07 06:00:48;;;;;;;6.40;2.17;;;15.00;99.90;;;-144.05;55.46;56884.94;5012051;28;20391;-86
2024/04/07 06:03:15;;;;;;;6.78;2.00;;;;;;;-144.05;55.68;56906.19;5011447;28;20468;-82
2024/04/07 06:05:41;;;;;;;8.80;2.75;;;;;;;-144.05;55.77;56891.31;5023242;28;20061;-85
2024/04/07 06:08:07;;;;;;;7.43;2.45;;;14.50;99.90;;;-144.05;55.30;56893.44;5041236;28;20029;-89
2024/04/07 06:10:35;;;;;;;8.65;2.08;;;16.50;99.90;;;-144.05;55.21;56882.81;5041647;28;20037;-87
2024/04/07 06:13:04;;;;;;;6.28;1.70;;;14.30;99.90;;;-144.05;55.04;56899.81;5031136;28;20402;-88
2024/04/07 06:15:31;;;;;;;8.10;1.75;;;14.00;99.90;;;-144.05;54.61;56876.44;5029441;28;20121;-88
2024/04/07 06:17:58;;;;;;;5.50;1.70;;;;;;;-144.05;54.54;56872.19;5050494;28;20037;-86
2024/04/07 06:20:24;;;;;;;8.93;1.38;;;;;;;-144.05;53.92;56874.31;5030633;28;20061;-87
2024/04/07 06:22:50;;;;;;;6.45;1.90;;;;;;;-144.05;53.52;56893.44;5048475;28;20468;-87
2024/04/07 06:25:17;;;;;;;5.95;1.40;;;;;;;-144.05;53.31;56884.94;5025141;28;20030;-87
2024/04/07 06:27:43;;;;;;;5.32;1.60;;;;;;;-144.05;53.43;56895.56;5032112;28;20025;-84
2024/04/07 06:30:10;;;;;;;6.40;1.60;;;;;;;-144.05;53.56;56863.69;5026556;28;20026;-84
2024/04/07 06:32:36;;;;;;;5.93;1.80;;;;;;;-144.05;53.82;56882.81;5016670;28;20053;-88
2024/04/07 06:35:03;;;;;;;3.88;1.70;;;;;;;-144.05;54.01;56891.31;5032335;28;20409;-87
2024/04/07 06:37:29;;;;;;;7.78;1.90;;;;;;;-144.05;53.90;56897.69;5048847;28;20048;-84
2024/04/07 06:39:56;;;;;;;8.10;1.88;;;17.20;99.90;;;-144.05;54.00;56904.06;5028796;28;20084;-86
2024/04/07 06:42:32;;;;;;;6.55;1.70;;;17.50;99.90;;;-144.05;53.84;56895.56;5022928;28;20506;-89
2024/04/07 06:45:01;;;;;;;;;;;16.80;99.90;;;-144.05;53.93;56891.31;5034404;28;20067;-82
2024/04/07 06:47:28;;;;;;;4.78;2.05;;;17.00;99.90;;;-144.05;53.84;56891.31;5026282;28;20011;-89
2024/04/07 06:49:57;;;;;;;7.05;2.17;;;17.10;99.90;;;-144.05;53.96;56880.69;5018945;28;20053;-87
2024/04/07 06:52:24;;;;;;;9.60;2.13;;;15.10;99.90;;;-144.05;53.83;56880.69;5046335;28;20030;-89
2024/04/07 06:54:51;;;;;;;7.55;2.03;;;;;;;-144.05;53.47;56887.06;5031510;28;20029;-85
2024/04/07 06:57:21;;;;;;;8.57;2.20;;;17.20;99.90;;;-144.05;53.56;56897.69;5040150;28;20041;-86
2024/04/07 06:59:49;;;;;;;7.40;1.98;;;;;;;-144.05;53.74;56882.81;5029616;28;20030;-88
2024/04/07 07:02:17;;;;;;;10.20;2.22;;;;;;;-144.05;53.30;56880.69;5021000;28;20049;-84
2024/04/07 07:04:43;;;;;;;8.50;1.85;;;15.80;99.90;;;-144.05;52.88;56891.31;5030352;28;20448;-85
2024/04/07 07:07:09;;;;;;;9.50;2.20;;;18.90;99.90;;;-144.05;52.17;56893.44;5017050;28;20026;-85
2024/04/07 07:09:35;;;;;;;5.85;1.60;;;15.90;99.90;;;-144.05;50.89;56893.44;5024922;28;20036;-85
2024/04/07 07:12:01;;;;;;;6.20;1.70;;;16.40;99.90;;;-144.05;50.15;56887.06;5050234;28;20392;-84
2024/04/07 07:14:27;;;;;;;8.45;1.88;;;19.30;99.90;;;-144.05;50.60;56889.19;5015671;28;20053;-84
2024/04/07 07:16:53;;;;;;;7.07;1.88;;;;;;;-144.05;49.09;56887.06;5050395;28;20022;-84
2024/04/07 07:19:21;;;;;;;10.93;2.25;;;19.70;99.90;;;-144.05;49.09;56910.44;5029931;28;20215;-84
2024/04/07 07:21:48;;;;;;;6.65;1.88;;;16.80;99.90;;;-144.05;49.16;56891.31;5023974;28;20029;-84
2024/04/07 07:24:14;;;;;;;6.00;1.42;;;19.30;99.90;;;-144.05;48.97;56895.56;5015131;28;20045;-84
2024/04/07 07:26:40;;;;;;;8.88;1.95;;;19.90;99.90;;;-144.05;47.79;56908.31;5017532;28;20033;-85
2024/04/07 07:29:07;;;;;;;9.48;1.80;;;;;;;-144.05;47.69;56908.31;5040588;28;20526;-85
2024/04/07 07:31:34;;;;;;;4.57;1.45;;;;;;;-144.05;47.40;56891.31;5031475;28;20483;-85
2024/04/07 07:34:00;;;;;;;4.03;1.05;;;;;;;-144.05;47.34;56887.06;5033180;28;20472;-83
2024/04/07 07:36:27;;;;;;;2.70;0.93;;;19.20;99.90;;;-144.05;47.37;56914.69;5032685;28;20041;-84
2024/04/07 07:38:55;;;;;;;4.28;0.80;;;20.10;99.90;;;-144.05;47.17;56925.28;5016046;28;20458;-83
2024/04/07 07:41:22;;;;;;;5.65;1.23;;;;;;;-144.05;47.21;56895.56;5014441;28;20026;-82
2024/04/07 07:43:48;;;;;;;4.10;1.38;;;19.80;99.90;;;-144.05;46.93;56882.81;5030279;28;20075;-84
2024/04/07 07:46:14;;;;;;;3.65;1.20;;;;;;;-144.05;47.11;56884.94;5028238;28;20344;-83
2024/04/07 07:48:41;;;;;;;6.13;1.58;;;;;;;-144.05;47.37;56859.47;5032438;28;20462;-84
2024/04/07 07:51:11;;;;;;;3.47;1.27;;;18.20;99.90;;;-144.05;47.39;56901.94;5032530;28;20033;-83
2024/04/07 07:53:38;;;;;;;6.47;1.50;;;19.10;99.90;;;-144.05;47.57;56895.56;5030068;28;20049;-83
2024/04/07 07:56:09;;;;;;;5.18;1.48;;;18.50;99.90;;;-144.05;47.08;56921.06;5014927;28;20052;-83
2024/04/07 07:58:38;;;;;;;5.25;1.35;;;19.70;99.90;;;-144.05;47.17;56897.69;5024243;28;20033;-86
2024/04/07 08:01:05;;;;;;;5.47;1.25;;;18.10;99.90;;;-144.05;47.30;56904.06;5015327;28;20034;-85
2024/04/07 08:03:32;;;;;;;4.53;1.48;;;;;;;-144.05;47.66;56882.81;5016196;28;20037;-85
2024/04/07 08:05:59;;;;;;;3.92;1.23;;;19.60;99.90;;;-144.05;47.69;56897.69;5033448;28;20025;-85
2024/04/07 08:08:26;;;;;;;2.38;1.23;;;;;;;-144.05;47.48;56891.31;5032548;28;20555;-85
2024/04/07 08:10:53;;;;;;;3.45;1.05;;;;;;;-144.05;47.46;56880.69;5032084;28;20053;-85
2024/04/07 08:13:19;;;;;;;3.42;1.20;;;;;;;-144.05;47.50;56889.19;5032242;28;20026;-86
2024/04/07 08:15:46;;;;;;;4.15;1.20;;;;;;;-144.05;47.52;56897.69;5032332;28;20029;-85
2024/04/07 08:18:13;;;;;;;6.45;1.63;;;;;;;-144.05;47.32;56893.44;5033610;28;20029;-84
2024/04/07 08:20:42;;;;;;;4.35;1.20;;;;;;;-144.05;47.79;56908.31;5031261;28;20519;-84
2024/04/07 08:23:10;;;;;;;5.20;1.10;;;;;;;-144.05;48.09;56880.69;5032239;28;20037;-85
2024/04/07 08:25:36;;;;;;;2.67;0.95;;;;;;;-144.05;47.50;56897.69;5023968;28;20076;-84
2024/04/07 08:28:06;;;;;;;5.03;1.17;;;18.30;99.90;;;-144.05;46.84;56859.47;5039431;28;20034;-85
2024/04/07 08:30:33;;;;;;;9.18;1.60;;;;;;;-144.05;46.86;56895.56;5029972;28;20038;-84
2024/04/07 08:33:00;;;;;;;7.07;1.65;;;18.50;99.90;;;-144.05;46.71;56897.69;5027904;28;20057;-86
2024/04/07 08:35:26;;;;;;;4.53;1.52;;;;;;;-144.05;46.09;56889.19;5041457;28;20053;-84
2024/04/07 08:37:53;;;;;;;4.85;1.77;;;;;;;-144.05;45.59;56895.56;5031633;28;20033;-84
2024/04/07 08:40:20;;;;;;;5.63;1.40;;;;;;;-144.05;45.34;56914.69;5032948;28;20398;-85
2024/04/07 08:42:49;;;;;;;6.90;1.42;;;20.40;99.90;;;-144.05;45.29;56908.31;5022834;28;20083;-85
2024/04/07 08:45:21;;;;;;;4.15;1.40;;;19.60;99.90;;;-144.05;43.60;56906.19;5025974;28;20030;-86
2024/04/07 08:47:49;;;;;;;6.05;1.90;;;19.90;99.90;;;-144.05;42.96;56923.19;5046411;28;20055;-87
2024/04/07 08:50:18;;;;;;;5.70;1.60;;;;;;;-144.05;42.90;56918.94;5048286;28;20641;-87
2024/04/07 08:52:44;;;;;;;3.50;1.15;;;;;;;-144.05;42.36;56906.19;5035245;28;20041;-86
2024/04/07 08:55:11;;;;;;;4.28;1.30;;;;;;;-144.05;42.69;56910.44;5029703;28;20087;-85
2024/04/07 08:57:40;;;;;;;3.35;1.50;;;20.50;99.90;;;-144.05;40.81;56916.81;5025503;28;20033;-86
2024/04/07 09:00:08;;;;;;;4.57;1.23;;;22.00;99.90;;;-144.05;41.38;56908.31;5023082;28;20488;-85
2024/04/07 09:02:36;;;;;;;4.38;0.95;;;22.20;99.90;;;-144.05;41.07;56910.44;5040985;28;20026;-86
2024/04/07 09:05:04;;;;;;;6.18;1.20;;;19.30;99.90;;;-144.05;41.56;56918.94;5036488;28;20017;-87
2024/04/07 09:07:30;;;;;;;4.72;1.10;;;;;;;-144.05;40.12;56933.78;5050121;28;20022;-86
2024/04/07 09:09:56;;;;;;;3.30;1.20;;;;;;;-144.05;39.71;56918.94;5057374;28;20092;-82
2024/04/07 09:12:23;;;;;;;3.83;1.05;;;;;;;-144.05;39.51;56933.78;5041024;28;20038;-84
2024/04/07 09:14:52;;;;;;;3.00;0.90;;;21.90;99.90;;;-144.05;38.92;56904.06;5019819;28;20056;-87
2024/04/07 09:17:19;;;;;;;3.95;0.93;;;;;;;-144.05;38.85;56912.56;5029681;28;20087;-85
2024/04/07 09:19:45;;;;;;;3.15;1.13;;;;;;;-144.05;37.73;56948.66;5048125;28;20021;-85
2024/04/07 09:22:11;;;;;;;3.97;1.05;;;;;;;-144.05;38.49;56931.66;5023874;28;20124;-84
2024/04/07 09:24:39;;;;;;;2.97;1.00;;;21.70;99.90;;;-144.05;37.99;56933.78;5019477;28;20079;-85
2024/04/07 09:27:12;;;;;;;5.65;1.00;;;23.30;99.90;;;-144.05;37.14;56938.03;5034694;28;20033;-86
2024/04/07 09:29:41;;;;;;;4.32;0.95;;;22.20;99.10;;;-144.05;36.81;56965.66;5032446;28;20044;-86
2024/04/07 09:32:09;;;;;;;2.88;0.70;;;22.20;96.80;;;-144.05;35.62;56929.53;5032613;28;20079;-83
2024/04/07 09:34:37;;;;;;;3.17;0.70;;;;;;;-144.05;36.23;56942.28;5032294;28;20056;-88
2024/04/07 09:37:05;;;;;;;1.50;0.60;;;;;;;-144.05;35.83;56952.91;5023334;28;20036;-85
2024/04/07 09:39:32;;;;;;;3.28;1.20;;;;;;;-144.05;37.04;56929.53;5024693;28;20029;-86
2024/04/07 09:42:02;;;;;;;3.90;1.17;;;22.10;97.20;;;-144.05;36.44;56940.16;5016395;28;20060;-86
2024/04/07 09:44:35;;;;;;;2.25;0.98;;;21.60;96.10;;;-144.05;36.38;56952.91;5043609;28;20428;-83
2024/04/07 09:47:09;;;;;;;3.42;0.95;;;21.40;95.00;;;-144.05;35.88;56933.78;5017969;28;20083;-89
2024/04/07 09:49:41;;;;;;;2.97;0.98;;;;;;;-144.05;37.18;56925.28;5032596;28;20044;-85
2024/04/07 09:52:08;;;;;;;3.00;0.73;;;;;;;-144.05;36.97;56938.03;5034296;28;20040;-87
2024/04/07 09:54:47;;;;;;;4.72;0.77;;;20.60;96.60;;;-144.05;37.86;56927.41;5027619;28;20487;-82
2024/04/07 09:57:17;;;;;;;4.70;0.80;;;20.60;96.50;;;-144.05;37.13;56931.66;5030070;28;20113;-86
2024/04/07 09:59:45;;;;;;;4.97;0.95;;;;;;;-144.05;37.36;56925.28;5018725;28;20037;-86
2024/04/07 10:02:13;;;;;;;3.20;0.90;;;;;;;-144.05;37.52;56931.66;5030468;28;20029;-87
2024/04/07 10:04:44;;;;;;;2.45;0.90;;;;;;;-144.05;37.32;56927.41;5031399;28;20028;-86
2024/04/07 10:07:16;;;;;;;2.75;0.73;;;20.70;96.00;;;-144.05;37.25;56914.69;5041571;28;20022;-85
2024/04/07 10:09:43;;;;;;;3.67;1.10;;;;;;;-144.05;37.16;56927.41;5032105;28;20044;-87
2024/04/07 10:12:10;;;;;;;7.93;0.70;;;;;;;-144.05;37.59;56933.78;5032879;28;20029;-86
2024/04/07 10:14:41;;;;;;;1.85;0.70;;;20.70;94.90;;;-144.05;36.32;56933.78;5033357;28;20097;-86
2024/04/07 10:17:10;;;;;;;2.58;0.93;;;;;;;-144.05;37.32;56906.19;5018975;28;20036;-85
2024/04/07 10:19:47;;;;;;;3.88;0.77;;;20.40;96.10;;;-144.05;37.54;56918.94;5023902;28;20022;-84
2024/04/07 10:22:17;;;;;;;4.13;0.90;;;20.30;96.30;;;-144.05;37.88;56912.56;5017570;28;20034;-87
2024/04/07 10:24:51;;;;;;;3.55;0.98;;;;;;;-144.05;37.47;56901.94;5037544;28;20025;-88
2024/04/07 10:27:24;;;;;;;4.80;0.82;;;21.10;95.90;;;-144.05;37.08;56933.78;5049864;28;20113;-86
2024/04/07 10:29:59;;;;;;;3.60;1.05;;;20.40;95.40;;;-144.05;37.16;56929.53;5025392;28;20030;-85
2024/04/07 10:32:38;;;;;;;3.25;0.90;;;20.40;95.40;;;-144.05;37.37;56904.06;5024586;28;20030;-87
2024/04/07 10:35:15;;;;;;;1.77;0.80;;;20.50;95.80;;;-144.05;37.48;56912.56;5030769;28;20025;-89
2024/04/07 10:37:42;;;;;;;4.47;0.85;;;;;;;-144.05;37.71;56904.06;5042037;28;20037;-87
2024/04/07 10:40:09;;;;;;;4.65;0.98;;;;;;;-144.05;36.90;56910.44;5021751;28;20098;-89
2024/04/07 10:42:38;;;;;;;5.15;0.75;;;20.40;95.40;;;-144.05;37.33;56916.81;5029271;28;20030;-86
2024/04/07 10:45:08;;;;;;;6.40;0.70;;;;;;;-144.05;37.18;56912.56;5026756;28;20048;-86
2024/04/07 10:47:34;;;;;;;4.38;1.05;;;;;;;-144.05;38.13;56916.81;5030816;28;20332;-85
2024/04/07 10:50:01;;;;;;;5.68;1.00;;;;;;;-144.05;37.94;56929.53;5022966;28;20502;-88
2024/04/07 10:52:30;;;;;;;1.40;0.65;;;;;;;-144.05;38.30;56918.94;5033991;28;20077;-86